Time;durP1;ratioP1;P1;durP2;ratioP2;P2;SDS_P1;SDS_P2;PMS_P1;PMS_P2;Temp;Humidity;BMP_temperature;BMP_pressure;BME280_temperature;BME280_humidity;BME280_pressure;Samples;Min_cycle;Max_cycle;Signal;HPM_P1;HPM_P2
2022/10/05 00:02:14;;;;;;;17.65;13.05;;;;;;;18.43;73.84;102166.66;4984567;28;20142;-81
2022/10/05 00:04:40;;;;;;;23.58;14.40;;;;;;;18.72;73.20;102202.28;4984768;28;20055;-81
2022/10/05 00:07:13;;;;;;;18.02;14.15;;;;;;;18.75;73.20;102196.59;4968770;28;20051;-81
2022/10/05 00:09:40;;;;;;;25.58;14.77;;;;;;;18.70;73.13;102196.22;4969885;28;20142;-81
2022/10/05 00:12:19;;;;;;;18.02;13.57;;;;;;;18.63;73.27;102196.97;4968614;28;20061;-81
2022/10/05 00:14:48;;;;;;;17.75;12.60;;;;;;;18.57;73.58;102191.19;4970192;28;20054;-81
2022/10/05 00:17:21;;;;;;;25.95;14.10;;;;;;;18.32;74.26;102156.94;4984615;28;20133;-81
2022/10/05 00:19:52;;;;;;;18.60;13.10;;;;;;;18.43;74.15;102183.63;4984549;28;20138;-82
2022/10/05 00:22:31;;;;;;;19.50;13.05;;;;;;;18.40;74.66;102185.75;4984683;28;20051;-81
2022/10/05 00:25:02;;;;;;;18.98;12.73;;;;;;;17.70;74.74;102087.59;4984080;28;20124;-81
2022/10/05 00:27:35;;;;;;;19.90;13.40;;;;;;;17.30;74.73;102031.50;4968311;28;20512;-81
2022/10/05 00:30:17;;;;;;;21.40;13.45;;;;;;;17.98;74.76;102148.59;4984198;28;20560;-79
2022/10/05 00:32:45;;;;;;;21.95;13.68;;;;;;;18.26;75.23;102198.72;4984157;28;20061;-81
2022/10/05 00:35:13;;;;;;;24.35;13.48;;;;;;;18.27;75.04;102197.69;4969312;28;20464;-81
2022/10/05 00:37:40;;;;;;;20.38;13.88;;;;;;;18.02;75.14;102161.59;4984001;28;20050;-81
2022/10/05 00:40:36;;;;;;;20.55;13.57;;;;;;;18.17;75.32;102190.69;4984237;28;20153;-80
2022/10/05 00:43:08;;;;;;;19.20;14.27;;;;;;;18.25;75.17;102210.44;4995841;28;20113;-78
2022/10/05 00:45:49;;;;;;;23.48;14.65;;;;;;;18.08;75.11;102181.66;4984243;28;20302;-80
2022/10/05 00:48:37;;;;;;;22.17;14.10;;;;;;;18.14;75.74;102211.50;5000258;28;20441;-79
2022/10/05 00:51:27;;;;;;;18.17;13.00;;;;;;;17.93;75.62;102183.97;4984945;28;20086;-81
2022/10/05 00:54:07;;;;;;;16.67;12.45;;;;;;;18.12;75.93;102209.94;4987859;28;20122;-81
2022/10/05 00:56:49;;;;;;;19.35;13.15;;;;;;;18.13;75.44;102212.50;4972924;28;20146;-81
2022/10/05 00:59:25;;;;;;;;;;;;;;;18.06;75.83;102214.06;4983668;28;20094;-79
2022/10/05 01:02:05;;;;;;;19.45;13.48;;;;;;;17.97;75.42;102190.75;4983436;28;20017;-81
2022/10/05 01:04:43;;;;;;;14.15;12.48;;;;;;;18.05;75.96;102209.69;4968722;28;20138;-81
2022/10/05 01:07:41;;;;;;;22.95;13.32;;;;;;;18.04;75.71;102208.00;4983025;28;20051;-81
2022/10/05 01:10:17;;;;;;;18.45;13.43;;;;;;;18.10;75.23;102206.56;4983839;28;20070;-81
2022/10/05 01:13:04;;;;;;;21.23;13.63;;;;;;;18.00;74.66;102174.34;4983460;28;20058;-80
2022/10/05 01:16:09;;;;;;;16.25;13.32;;;;;;;17.70;75.37;102127.91;4983045;28;20053;-81
2022/10/05 01:18:48;;;;;;;23.58;13.98;;;;;;;17.93;75.21;102173.22;4982364;28;20563;-80
2022/10/05 01:21:26;;;;;;;19.17;13.65;;;;;;;17.93;75.54;102194.72;4966613;28;20460;-81
2022/10/05 01:24:14;;;;;;;20.83;14.00;;;;;;;17.92;75.83;102198.41;4967912;28;20516;-81
2022/10/05 01:27:02;;;;;;;21.25;13.85;;;;;;;17.89;75.64;102199.56;4983276;28;20055;-81
2022/10/05 01:29:58;;;;;;;22.67;14.55;;;;;;;17.86;75.66;102202.50;4982986;28;20053;-81
2022/10/05 01:32:38;;;;;;;19.10;13.93;;;;;;;17.76;75.81;102185.53;4966370;28;20057;-81
2022/10/05 01:35:19;;;;;;;21.55;14.48;;;;;;;17.67;76.13;102173.84;4966795;28;20492;-81
2022/10/05 01:37:54;;;;;;;26.50;15.68;;;;;;;17.85;76.19;102197.31;4966983;28;20055;-83
2022/10/05 01:40:48;;;;;;;28.77;15.25;;;;;;;17.83;75.88;102194.75;4982023;28;20043;-81
2022/10/05 01:43:37;;;;;;;23.35;15.75;;;;;;;17.60;76.02;102164.69;4981617;28;20424;-81
2022/10/05 01:46:35;;;;;;;28.70;15.32;;;;;;;17.42;76.17;102142.22;4999462;28;20066;-81
2022/10/05 01:49:13;;;;;;;24.95;15.35;;;;;;;17.72;76.53;102198.44;4984058;28;20058;-81
2022/10/05 01:52:04;;;;;;;25.02;14.77;;;;;;;17.75;76.54;102183.03;4983136;28;20290;-81
2022/10/05 01:54:38;;;;;;;20.50;14.80;;;;;;;17.71;76.13;102196.72;4981440;28;20447;-81
2022/10/05 01:57:36;;;;;;;24.98;15.55;;;;;;;17.71;76.34;102195.88;4981960;28;20057;-82
2022/10/05 02:00:13;;;;;;;27.83;16.02;;;;;;;17.66;76.88;102193.63;4965707;28;20172;-81
2022/10/05 02:03:01;;;;;;;21.75;15.77;;;;;;;17.62;76.73;102194.91;4982345;28;20512;-81
2022/10/05 02:05:31;;;;;;;22.55;15.52;;;;;;;17.66;76.45;102201.69;4966423;28;20061;-81
2022/10/05 02:08:07;;;;;;;26.48;14.43;;;;;;;17.45;76.30;102166.09;4982659;28;20057;-83
2022/10/05 02:10:43;;;;;;;19.02;14.23;;;;;;;17.80;76.18;102200.41;4982325;28;20086;-81
2022/10/05 02:13:19;;;;;;;21.95;14.30;;;;;;;17.81;75.68;102203.94;4982784;28;20066;-80
2022/10/05 02:16:27;;;;;;;23.95;14.77;;;;;;;17.64;75.99;102184.84;4966055;28;20049;-82
2022/10/05 02:19:16;;;;;;;19.85;14.73;;;;;;;17.75;75.59;102201.81;4982333;28;20057;-81
2022/10/05 02:21:45;;;;;;;18.83;15.60;;;;;;;17.87;75.54;102198.00;4981991;28;20393;-81
2022/10/05 02:24:21;;;;;;;30.08;15.48;;;;;;;17.92;74.94;102209.16;4982140;28;20042;-81
2022/10/05 02:26:49;;;;;;;26.38;14.55;;;;;;;17.90;75.18;102197.72;4982135;28;20046;-81
2022/10/05 02:29:18;;;;;;;25.63;16.08;;;;;;;17.62;75.08;102173.44;4966278;28;20579;-81
2022/10/05 02:31:50;;;;;;;22.33;14.95;;;;;;;17.80;75.62;102210.28;4982415;28;20056;-81
2022/10/05 02:34:26;;;;;;;18.67;14.63;;;;;;;17.77;75.47;102215.94;4982081;28;20336;-81
2022/10/05 02:37:21;;;;;;;17.75;13.90;;;;;;;17.69;75.70;102220.22;4967143;28;20047;-81
2022/10/05 02:40:14;;;;;;;19.08;14.30;;;;;;;17.57;75.88;102199.00;4982136;28;20051;-81
2022/10/05 02:43:05;;;;;;;22.92;15.13;;;;;;;17.69;75.82;102211.28;4967053;28;20528;-81
2022/10/05 02:45:40;;;;;;;17.25;14.27;;;;;;;17.63;75.91;102199.28;4982099;28;20354;-81
2022/10/05 02:48:58;;;;;;;18.40;14.57;;;;;;;17.37;75.65;102174.88;4981909;28;20085;-82
2022/10/05 02:51:33;;;;;;;23.30;15.65;;;;;;;17.45;76.34;102192.94;4910245;29;20071;-82
2022/10/05 02:54:14;;;;;;;24.40;14.82;;;;;;;17.52;76.00;102204.81;4909832;29;20172;-81
2022/10/05 02:56:57;;;;;;;19.23;14.63;;;;;;;17.49;76.43;102199.72;4948862;28;20477;-81
2022/10/05 02:59:30;;;;;;;18.20;15.55;;;;;;;17.49;76.51;102203.25;4965727;28;20051;-81
2022/10/05 03:02:01;;;;;;;18.02;14.63;;;;;;;17.47;76.39;102199.88;4966849;28;20059;-80
2022/10/05 03:04:41;;;;;;;22.33;15.98;;;;;;;17.45;76.04;102201.88;4981681;28;20053;-82
2022/10/05 03:07:20;;;;;;;20.77;15.38;;;;;;;17.21;76.59;102166.53;4981685;28;20053;-82
2022/10/05 03:10:08;;;;;;;20.33;15.07;;;;;;;17.41;76.70;102195.09;4981728;28;20129;-81
2022/10/05 03:12:50;;;;;;;20.05;15.48;;;;;;;17.32;76.31;102184.34;4966416;28;20074;-81
2022/10/05 03:15:28;;;;;;;;;;;;;;;17.34;76.57;102193.94;4982247;28;20559;-81
2022/10/05 03:18:06;;;;;;;28.88;16.20;;;;;;;17.36;76.47;102197.34;4981533;28;19922;-81
2022/10/05 03:20:53;;;;;;;22.38;15.38;;;;;;;17.31;76.51;102183.50;4982727;28;20078;-81
2022/10/05 03:23:58;;;;;;;20.83;14.57;;;;;;;17.18;75.75;102148.03;4984112;28;20544;-82
2022/10/05 03:26:47;;;;;;;27.67;14.88;;;;;;;17.53;75.47;102193.09;4939755;28;20074;-80
2022/10/05 03:29:26;;;;;;;18.65;14.63;;;;;;;17.57;75.53;102202.53;4985466;28;20063;-80
2022/10/05 03:32:03;;;;;;;19.58;15.13;;;;;;;17.19;75.41;102137.19;4985119;28;20121;-80
2022/10/05 03:34:37;;;;;;;23.25;15.35;;;;;;;17.37;75.55;102172.19;4969252;28;20081;-83
2022/10/05 03:37:19;;;;;;;21.98;14.25;;;;;;;17.43;75.86;102189.59;4985068;28;20473;-80
2022/10/05 03:39:55;;;;;;;16.55;14.10;;;;;;;17.22;75.80;102163.72;4970410;28;20073;-80
2022/10/05 03:42:56;;;;;;;20.23;14.38;;;;;;;17.29;75.92;102197.06;5001729;28;20089;-80
2022/10/05 03:45:32;;;;;;;19.25;15.65;;;;;;;17.26;76.15;102199.19;4985853;28;20493;-81
2022/10/05 03:48:07;;;;;;;20.70;15.10;;;;;;;16.84;76.63;102132.38;4985339;28;20086;-81
2022/10/05 03:51:10;;;;;;;20.77;15.23;;;;;;;17.16;76.69;102196.50;4949675;29;20494;-81
2022/10/05 03:53:45;;;;;;;19.88;15.52;;;;;;;16.64;76.18;102105.50;4950851;28;20116;-79
2022/10/05 03:56:35;;;;;;;20.90;15.55;;;;;;;17.25;76.54;102200.16;4982659;28;20553;-81
2022/10/05 03:59:12;;;;;;;24.13;15.48;;;;;;;17.29;76.01;102207.78;4949608;28;20654;-81
2022/10/05 04:01:44;;;;;;;22.10;14.77;;;;;;;17.31;76.34;102204.97;4982702;28;20142;-81
2022/10/05 04:04:22;;;;;;;22.45;15.27;;;;;;;17.10;75.90;102183.66;4982037;28;20586;-81
2022/10/05 04:06:51;;;;;;;22.45;15.57;;;;;;;17.21;76.23;102204.97;4981703;28;20051;-81
2022/10/05 04:09:40;;;;;;;18.63;15.13;;;;;;;17.13;76.24;102202.13;4981607;28;20078;-81
2022/10/05 04:12:26;;;;;;;18.52;14.98;;;;;;;16.72;76.58;102144.19;4981737;28;20094;-81
2022/10/05 04:14:58;;;;;;;20.88;16.75;;;;;;;17.02;76.66;102188.88;4989342;28;20051;-81
2022/10/05 04:17:39;;;;;;;20.27;15.32;;;;;;;17.04;75.93;102184.22;4980651;28;20055;-79
2022/10/05 04:20:08;;;;;;;20.80;16.40;;;;;;;17.09;76.26;102198.06;4981270;28;20157;-79
2022/10/05 04:22:46;;;;;;;21.85;15.75;;;;;;;16.77;76.26;102142.81;4981301;28;20069;-81
2022/10/05 04:25:24;;;;;;;20.98;15.70;;;;;;;17.22;76.13;102217.41;4981254;28;20047;-80
2022/10/05 04:28:31;;;;;;;23.60;15.05;;;;;;;17.12;75.28;102189.72;4993656;28;20138;-81
2022/10/05 04:31:01;;;;;;;21.95;15.55;;;;;;;16.97;75.93;102172.34;4984493;28;20046;-80
2022/10/05 04:33:28;;;;;;;25.77;16.70;;;;;;;17.25;75.89;102210.91;4983980;28;20061;-79
2022/10/05 04:36:23;;;;;;;20.83;16.15;;;;;;;17.24;75.79;102210.06;4984322;28;20059;-80
2022/10/05 04:39:22;;;;;;;19.55;15.73;;;;;;;17.13;75.33;102195.94;4983390;28;20488;-80
2022/10/05 04:42:02;;;;;;;24.88;16.75;;;;;;;16.96;75.96;102178.69;4984479;28;20055;-80
2022/10/05 04:45:04;;;;;;;23.52;17.73;;;;;;;17.11;76.06;102220.19;4980665;28;20573;-80
2022/10/05 04:47:46;;;;;;;23.17;16.40;;;;;;;17.09;76.24;102220.38;4981096;28;20059;-82
2022/10/05 04:50:30;;;;;;;24.80;15.60;;;;;;;17.05;76.16;102212.72;4966092;28;20050;-81
2022/10/05 04:53:21;;;;;;;19.38;16.67;;;;;;;17.08;76.01;102221.34;4984208;28;20055;-81
2022/10/05 04:56:23;;;;;;;25.75;18.00;;;;;;;17.13;75.69;102222.75;4983983;28;20369;-80
2022/10/05 04:59:38;;;;;;;25.38;17.90;;;;;;;16.98;75.91;102200.88;4983872;28;20089;-81
2022/10/05 05:02:17;;;;;;;39.05;30.40;;;;;;;17.14;75.76;102225.31;4969135;28;20099;-81
2022/10/05 05:05:01;;;;;;;22.55;16.98;;;;;;;17.19;75.68;102233.78;4984373;28;20060;-81
2022/10/05 05:07:27;;;;;;;22.73;16.88;;;;;;;17.19;75.49;102232.94;4983895;28;20054;-81
2022/10/05 05:10:25;;;;;;;22.80;18.20;;;;;;;17.06;76.15;102227.81;4984133;28;20551;-81
2022/10/05 05:12:58;;;;;;;24.75;17.38;;;;;;;16.80;76.22;102180.09;4983379;28;20043;-82
2022/10/05 05:15:40;;;;;;;24.13;17.23;;;;;;;17.12;75.90;102227.28;4983619;28;20371;-79
2022/10/05 05:18:31;;;;;;;26.15;17.10;;;;;;;17.11;76.01;102236.31;4983122;28;20134;-79
2022/10/05 05:21:54;;;;;;;26.25;18.48;;;;;;;17.08;76.29;102231.22;4983871;28;20078;-79
2022/10/05 05:24:44;;;;;;;24.15;17.20;;;;;;;17.01;76.09;102235.44;4962672;28;20047;-80
2022/10/05 05:27:29;;;;;;;27.30;18.90;;;;;;;16.99;76.37;102242.78;4997341;28;20250;-78
2022/10/05 05:29:56;;;;;;;23.67;18.38;;;;;;;16.57;76.70;102173.22;4985068;28;20051;-81
2022/10/05 05:32:23;;;;;;;32.67;18.08;;;;;;;16.63;76.69;102183.41;4984001;28;20390;-81
2022/10/05 05:35:37;;;;;;;30.52;18.85;;;;;;;16.65;76.60;102178.75;4983198;28;20571;-80
2022/10/05 05:38:32;;;;;;;28.20;18.95;;;;;;;17.05;75.92;102245.78;4983100;28;20047;-80
2022/10/05 05:41:35;;;;;;;27.38;18.88;;;;;;;17.04;75.71;102235.19;4983462;28;20513;-81
2022/10/05 05:44:09;;;;;;;24.17;19.02;;;;;;;17.02;76.03;102251.41;4967246;28;20050;-79
2022/10/05 05:46:49;;;;;;;22.45;18.63;;;;;;;16.92;76.59;102241.63;4982585;28;20134;-81
2022/10/05 05:49:57;;;;;;;29.30;19.52;;;;;;;16.99;76.17;102250.84;4982581;28;20175;-79
2022/10/05 05:52:41;;;;;;;25.42;19.48;;;;;;;16.98;76.55;102263.41;4961535;28;20054;-80
2022/10/05 05:55:34;;;;;;;26.40;18.92;;;;;;;16.89;76.66;102248.13;4982804;28;20047;-79
2022/10/05 05:58:15;;;;;;;25.40;19.38;;;;;;;16.95;76.70;102270.91;4967872;28;20047;-80
2022/10/05 06:00:50;;;;;;;;;;;;;;;16.96;76.75;102275.25;4983262;28;20512;-81
2022/10/05 06:03:39;;;;;;;27.48;20.00;;;;;;;16.97;76.38;102267.09;4983029;28;19985;-80
2022/10/05 06:06:13;;;;;;;27.13;20.10;;;;;;;17.06;76.47;102281.50;4967067;28;20051;-80
2022/10/05 06:09:03;;;;;;;30.42;20.48;;;;;;;16.77;76.19;102217.00;4982958;28;20065;-80
2022/10/05 06:12:01;;;;;;;28.38;19.90;;;;;;;17.07;76.48;102273.31;4966555;28;20051;-80
2022/10/05 06:14:33;;;;;;;31.90;19.38;;;;;;;17.14;75.96;102273.63;4966743;28;20094;-80
2022/10/05 06:17:09;;;;;;;28.05;18.58;;;;;;;17.20;75.69;102281.09;4966703;28;20050;-80
2022/10/05 06:19:38;;;;;;;33.15;21.55;;;;;;;17.19;75.97;102275.88;4982455;28;20049;-81
2022/10/05 06:22:14;;;;;;;34.80;19.92;;;;;;;16.68;76.01;102186.53;4966674;28;20509;-80
2022/10/05 06:24:51;;;;;;;33.28;20.02;;;;;;;17.34;75.94;102279.00;4967735;28;20051;-80
2022/10/05 06:27:35;;;;;;;25.25;18.70;;;;;;;16.60;75.61;102172.94;4966504;28;20151;-81
2022/10/05 06:30:16;;;;;;;31.25;18.83;;;;;;;17.30;75.89;102276.59;4982263;28;20058;-81
2022/10/05 06:32:45;;;;;;;26.77;19.20;;;;;;;17.42;75.85;102285.34;4977935;28;20445;-81
2022/10/05 06:35:31;;;;;;;26.67;19.67;;;;;;;16.87;75.63;102175.03;4982641;28;20138;-81
2022/10/05 06:38:26;;;;;;;24.25;20.35;;;;;;;17.46;75.50;102275.19;4981889;28;20128;-80
2022/10/05 06:41:23;;;;;;;29.00;19.85;;;;;;;17.58;75.75;102284.81;4966375;28;20130;-81
2022/10/05 06:43:53;;;;;;;26.23;19.13;;;;;;;17.65;75.17;102283.25;4966154;28;20057;-80
2022/10/05 06:46:49;;;;;;;24.05;19.63;;;;;;;17.62;74.94;102269.25;4964827;28;20125;-83
2022/10/05 06:49:47;;;;;;;33.53;20.33;;;;;;;17.77;75.28;102281.28;4952186;28;20050;-80
2022/10/05 06:52:41;;;;;;;30.60;20.55;;;;;;;17.86;74.80;102290.31;4980300;28;20055;-80
2022/10/05 06:55:22;;;;;;;32.85;20.80;;;;;;;17.94;74.74;102299.38;4980806;28;20065;-82
2022/10/05 06:58:01;;;;;;;26.03;20.93;;;;;;;17.99;74.05;102301.63;4965013;28;20484;-81
2022/10/05 07:00:41;;;;;;;29.23;21.80;;;;;;;17.86;74.24;102271.50;4979187;28;20505;-81
2022/10/05 07:03:29;;;;;;;36.67;23.25;;;;;;;18.09;73.90;102302.47;4995465;28;20062;-81
2022/10/05 07:06:02;;;;;;;28.00;21.70;;;;;;;18.11;73.80;102305.84;4981384;28;20505;-81
2022/10/05 07:08:50;;;;;;;35.92;24.00;;;;;;;18.12;73.35;102287.88;4981030;28;20601;-81
2022/10/05 07:11:35;;;;;;;29.45;22.33;;;;;;;18.28;73.38;102306.09;4979189;28;20146;-82
2022/10/05 07:14:26;;;;;;;32.85;23.08;;;;;;;18.35;72.49;102312.59;4980301;28;20073;-82
2022/10/05 07:17:34;;;;;;;39.10;24.98;;;;;;;18.37;72.12;102315.97;4980372;28;20058;-81
2022/10/05 07:20:39;;;;;;;35.55;24.83;;;;;;;18.50;72.18;102315.66;4980590;28;20336;-80
2022/10/05 07:23:35;;;;;;;34.97;24.27;;;;;;;18.58;71.56;102313.91;4953768;28;20059;-80
2022/10/05 07:26:11;;;;;;;41.47;26.45;;;;;;;18.65;71.43;102324.09;4988200;28;20410;-81
2022/10/05 07:29:12;;;;;;;40.33;25.52;;;;;;;18.62;70.55;102292.09;4965792;28;20046;-81
2022/10/05 07:32:13;;;;;;;34.72;24.90;;;;;;;18.83;70.29;102316.94;4981722;28;20047;-78
2022/10/05 07:34:55;;;;;;;43.80;25.17;;;;;;;18.86;70.52;102315.81;4982176;28;20166;-80
2022/10/05 07:37:56;;;;;;;;;;;;;;;18.83;70.68;102316.94;4979060;28;20141;-80
2022/10/05 07:40:40;;;;;;;36.00;24.67;;;;;;;18.91;70.94;102318.88;4982213;28;19993;-79
2022/10/05 07:43:20;;;;;;;39.13;25.75;;;;;;;18.93;71.06;102309.69;4998001;28;20058;-79
2022/10/05 07:46:00;;;;;;;32.78;25.20;;;;;;;18.98;70.60;102320.84;4966223;28;20051;-81
2022/10/05 07:48:36;;;;;;;31.65;25.00;;;;;;;18.98;70.50;102309.22;4981979;28;20485;-81
2022/10/05 07:51:25;;;;;;;35.80;24.42;;;;;;;19.06;69.65;102321.94;4981908;28;20084;-81
2022/10/05 07:54:07;;;;;;;34.80;25.63;;;;;;;18.98;70.17;102293.06;4962133;28;20060;-79
2022/10/05 07:56:42;;;;;;;32.97;23.15;;;;;;;19.12;70.46;102305.19;4964212;28;20055;-80
2022/10/05 07:59:48;;;;;;;47.67;28.52;;;;;;;19.28;69.82;102316.13;4965665;28;20053;-81
2022/10/05 08:02:41;;;;;;;50.20;30.35;;;;;;;19.29;70.26;102312.44;4927959;29;20565;-80
2022/10/05 08:05:24;;;;;;;45.25;29.13;;;;;;;19.24;70.02;102303.97;4969571;28;20082;-82
2022/10/05 08:08:02;;;;;;;40.28;29.05;;;;;;;19.30;69.76;102318.69;4985566;28;20061;-82
2022/10/05 08:10:34;;;;;;;42.53;28.83;;;;;;;18.88;69.43;102243.84;4970239;28;20472;-81
2022/10/05 08:13:12;;;;;;;43.63;31.25;;;;;;;19.31;69.47;102306.91;4970156;28;20086;-81
2022/10/05 08:15:41;;;;;;;46.05;29.67;;;;;;;18.95;69.55;102240.41;4985033;28;20469;-81
2022/10/05 08:18:30;;;;;;;55.85;36.55;;;;;;;19.20;68.76;102263.06;4984244;28;20288;-81
2022/10/05 08:20:58;;;;;;;49.40;33.28;;;;;;;19.58;69.50;102331.06;4981643;28;20078;-80
2022/10/05 08:23:37;;;;;;;52.45;33.53;;;;;;;18.49;69.03;102142.69;5000434;28;20055;-81
2022/10/05 08:26:13;;;;;;;49.38;32.70;;;;;;;19.61;69.01;102328.09;4984629;28;20149;-81
2022/10/05 08:29:33;;;;;;;48.17;30.48;;;;;;;19.69;68.45;102335.44;4984483;28;20142;-82
2022/10/05 08:32:11;;;;;;;41.80;28.85;;;;;;;19.76;68.73;102347.28;4960729;28;20050;-81
2022/10/05 08:34:58;;;;;;;38.78;28.60;;;;;;;19.73;68.68;102339.47;4968626;28;20638;-82
2022/10/05 08:37:36;;;;;;;42.67;28.13;;;;;;;19.63;68.58;102309.91;4984148;28;20141;-81
2022/10/05 08:40:18;;;;;;;41.58;30.38;;;;;;;19.90;68.05;102347.72;4984255;28;20054;-81
2022/10/05 08:43:04;;;;;;;39.90;27.95;;;;;;;19.93;68.13;102344.72;4969663;28;20053;-82
2022/10/05 08:45:49;;;;;;;39.85;26.25;;;;;;;19.83;67.78;102320.53;4985342;28;20050;-79
2022/10/05 08:49:21;;;;;;;40.70;26.75;;;;;;;20.13;67.46;102348.09;4985673;28;20074;-80
2022/10/05 08:52:19;;;;;;;42.05;28.05;;;;;;;20.25;67.32;102339.59;4920854;29;20047;-80
2022/10/05 08:55:09;;;;;;;38.08;25.58;;;;;;;20.48;66.74;102341.75;4929725;28;20058;-82
2022/10/05 08:57:58;;;;;;;37.47;25.60;;;;;;;20.67;65.84;102341.53;4940519;28;20054;-81
2022/10/05 09:00:33;;;;;;;38.10;21.83;;;;;;;20.72;66.41;102348.31;4984063;28;20576;-82
2022/10/05 09:03:06;;;;;;;35.42;24.05;;;;;;;20.44;66.21;102278.34;4967836;28;20157;-83
2022/10/05 09:06:13;;;;;;;36.90;24.00;;;;;;;20.91;65.46;102343.50;4984378;28;20362;-82
2022/10/05 09:08:49;;;;;;;34.05;22.35;;;;;;;20.64;64.48;102266.31;4984190;28;20223;-83
2022/10/05 09:11:23;;;;;;;31.63;20.88;;;;;;;21.23;64.12;102341.94;4983917;28;20143;-83
2022/10/05 09:13:59;;;;;;;27.55;20.10;;;;;;;21.39;63.85;102343.88;4968007;28;20090;-81
2022/10/05 09:16:48;;;;;;;29.45;22.17;;;;;;;21.47;63.16;102340.34;4967910;28;20114;-83
2022/10/05 09:19:51;;;;;;;38.35;21.88;;;;;;;21.63;63.11;102353.88;4983139;28;20477;-81
2022/10/05 09:22:30;;;;;;;33.20;22.15;;;;;;;21.47;62.75;102289.84;4944455;28;20466;-82
2022/10/05 09:25:12;;;;;;;28.83;19.50;;;;;;;21.94;62.31;102340.56;4983919;28;20078;-82
2022/10/05 09:27:48;;;;;;;31.92;20.70;;;;;;;22.10;61.61;102338.84;4984150;28;20157;-82
2022/10/05 09:30:25;;;;;;;31.25;21.08;;;;;;;22.25;61.32;102353.38;4983460;28;20097;-81
2022/10/05 09:36:58;;;;;;;32.60;21.45;;;;;;;22.59;59.72;102355.00;4967277;28;20568;-82
2022/10/05 09:39:46;;;;;;;33.47;24.35;;;;;;;22.71;59.80;102363.59;4962814;28;20054;-81
2022/10/05 09:42:51;;;;;;;34.88;20.27;;;;;;;22.93;59.35;102351.16;4963384;28;20054;-82
2022/10/05 09:45:27;;;;;;;31.90;20.63;;;;;;;23.10;58.17;102358.22;4963995;28;20093;-82
2022/10/05 09:48:15;;;;;;;34.95;21.33;;;;;;;23.17;57.73;102353.78;4964963;28;20051;-82
2022/10/05 09:50:47;;;;;;;34.75;22.10;;;;;;;23.26;58.04;102351.91;4964357;28;20240;-81
2022/10/05 09:53:31;;;;;;;36.90;21.23;;;;;;;22.99;58.25;102290.94;4965449;28;20605;-81
2022/10/05 09:56:10;;;;;;;37.25;22.38;;;;;;;22.63;57.69;102210.19;4965952;28;20282;-81
2022/10/05 09:59:15;;;;;;;26.92;20.48;;;;;;;23.42;57.49;102323.84;4951295;28;20065;-81
2022/10/05 10:02:05;;;;;;;30.80;21.65;;;;;;;23.84;57.57;102344.25;4953157;28;20082;-82
2022/10/05 10:05:04;;;;;;;26.25;19.08;;;;;;;23.92;56.39;102348.75;4958460;28;20590;-82
2022/10/05 10:07:57;;;;;;;23.60;16.77;;;;;;;23.36;55.70;102256.81;4969165;28;20054;-83
2022/10/05 10:10:49;;;;;;;27.73;17.55;;;;;;;24.08;54.88;102338.59;4965609;28;20058;-82
2022/10/05 10:13:35;;;;;;;23.33;15.40;;;;;;;24.16;55.50;102328.69;4948668;28;20061;-83
2022/10/05 10:16:22;;;;;;;22.58;15.50;;;;;;;24.43;54.98;102338.91;4963751;28;20082;-80
2022/10/05 10:19:12;;;;;;;23.75;16.55;;;;;;;24.63;53.68;102349.25;4948765;28;20058;-81
2022/10/05 10:21:53;;;;;;;20.58;15.52;;;;;;;24.81;53.78;102335.28;4948517;28;20066;-82
2022/10/05 10:24:23;;;;;;;20.80;15.90;;;;;;;24.87;52.90;102329.94;4962160;28;20043;-82
2022/10/05 10:27:08;;;;;;;20.55;13.82;;;;;;;25.05;53.08;102336.84;4962268;28;20278;-80
2022/10/05 10:29:41;;;;;;;21.27;13.65;;;;;;;25.13;50.79;102334.03;4962428;28;20659;-83
2022/10/05 10:32:15;;;;;;;23.67;12.43;;;;;;;24.61;50.84;102245.41;4962446;28;20457;-80
2022/10/05 10:35:11;;;;;;;19.48;13.18;;;;;;;25.07;50.77;102285.88;4962941;28;20054;-81
2022/10/05 10:38:05;;;;;;;18.60;12.27;;;;;;;25.60;50.20;102332.66;4962300;28;20051;-81
2022/10/05 10:40:35;;;;;;;17.13;11.38;;;;;;;25.67;50.58;102322.69;4962293;28;20059;-82
2022/10/05 10:43:23;;;;;;;15.88;11.18;;;;;;;25.97;50.48;102331.59;4962020;28;20078;-81
2022/10/05 10:46:28;;;;;;;25.90;14.13;;;;;;;26.03;49.50;102338.09;4962455;28;20336;-81
2022/10/05 10:49:11;;;;;;;23.08;13.63;;;;;;;25.95;49.96;102292.84;4947551;28;20055;-80
2022/10/05 10:52:18;;;;;;;18.33;12.93;;;;;;;26.38;49.55;102335.41;4961973;28;20532;-82
2022/10/05 10:55:06;;;;;;;15.45;10.82;;;;;;;26.51;48.86;102345.56;4946174;28;20133;-82
2022/10/05 10:57:45;;;;;;;14.43;10.32;;;;;;;26.71;48.02;102342.97;4961632;28;20173;-83
2022/10/05 11:00:37;;;;;;;18.80;11.73;;;;;;;26.60;47.96;102318.00;4943900;28;20156;-83
2022/10/05 11:03:22;;;;;;;20.65;14.00;;;;;;;26.45;48.18;102284.56;4956277;28;20058;-80
2022/10/05 11:06:06;;;;;;;18.60;13.93;;;;;;;26.70;46.97;102330.38;4981036;28;20545;-83
2022/10/05 11:08:49;;;;;;;17.80;13.18;;;;;;;26.86;47.24;102332.78;4981046;28;20161;-82
2022/10/05 11:11:29;;;;;;;19.33;14.13;;;;;;;26.83;47.26;102325.00;4966211;28;20058;-82
2022/10/05 11:14:37;;;;;;;18.60;11.90;;;;;;;26.99;47.12;102319.22;4997000;28;20589;-82
2022/10/05 11:17:32;;;;;;;22.60;13.63;;;;;;;26.88;45.97;102314.34;4924192;29;20158;-81
2022/10/05 11:20:33;;;;;;;13.48;11.20;;;;;;;26.90;45.85;102316.88;4996946;28;20467;-83
2022/10/05 11:23:14;;;;;;;19.17;13.63;;;;;;;26.72;45.65;102287.44;4981080;28;20046;-83
2022/10/05 11:25:52;;;;;;;16.77;11.85;;;;;;;26.63;46.26;102309.41;4980632;28;20081;-83
2022/10/05 11:40:15;;;;;;;17.60;11.30;;;;;;;25.87;48.06;102290.25;4910132;29;20226;-84
2022/10/05 11:42:54;;;;;;;21.75;12.70;;;;;;;25.28;48.27;102188.09;4925006;28;20059;-82
2022/10/05 11:45:23;;;;;;;22.55;13.07;;;;;;;25.27;48.49;102210.88;4946471;28;20350;-83
2022/10/05 11:48:14;;;;;;;19.80;12.48;;;;;;;25.67;49.10;102284.63;4946123;28;20515;-83
2022/10/05 11:51:08;;;;;;;19.90;12.18;;;;;;;25.55;49.41;102283.47;4964394;28;20058;-83
2022/10/05 11:53:44;;;;;;;17.52;11.07;;;;;;;25.54;48.77;102292.69;4964370;28;20520;-83
2022/10/05 11:56:33;;;;;;;17.13;13.25;;;;;;;25.31;48.59;102276.53;4965152;28;20054;-80
2022/10/05 11:59:14;;;;;;;18.95;12.05;;;;;;;25.29;49.18;102265.88;4964626;28;20066;-81
2022/10/05 12:02:06;;;;;;;17.15;12.77;;;;;;;24.73;48.95;102181.44;4964048;28;20486;-80
2022/10/05 12:04:36;;;;;;;;;;;;;;;25.17;49.28;102278.28;4965032;28;20619;-82
2022/10/05 12:07:18;;;;;;;24.33;11.98;;;;;;;25.21;49.18;102271.44;4951178;28;19940;-82
2022/10/05 12:10:16;;;;;;;15.90;12.13;;;;;;;25.12;49.84;102276.13;4980936;28;20055;-83
2022/10/05 12:13:12;;;;;;;14.02;11.68;;;;;;;25.16;49.43;102280.13;4964086;28;20113;-82
2022/10/05 12:15:39;;;;;;;16.63;10.95;;;;;;;24.94;49.92;102262.94;4948190;28;20050;-82
2022/10/05 12:18:12;;;;;;;14.25;10.68;;;;;;;24.91;50.56;102265.22;4952008;28;20051;-83
2022/10/05 12:20:47;;;;;;;20.08;10.55;;;;;;;23.73;50.61;102092.47;4966193;28;20065;-82
2022/10/05 12:23:39;;;;;;;16.40;11.40;;;;;;;24.98;49.50;102259.84;4967937;28;20061;-83
2022/10/05 12:26:10;;;;;;;14.05;8.63;;;;;;;24.86;50.01;102254.94;4968677;28;20195;-82
2022/10/05 12:28:46;;;;;;;18.80;11.20;;;;;;;24.83;50.42;102266.19;4968914;28;20095;-83
2022/10/05 12:31:27;;;;;;;15.27;10.52;;;;;;;24.64;50.88;102236.91;4950951;28;20558;-82
2022/10/05 12:34:20;;;;;;;12.73;10.88;;;;;;;24.81;50.46;102251.94;4964519;28;20465;-83
2022/10/05 12:37:05;;;;;;;14.63;11.32;;;;;;;24.66;50.36;102256.53;4963943;28;20058;-82
2022/10/05 12:39:53;;;;;;;14.68;9.10;;;;;;;24.70;49.96;102230.72;4964903;28;20054;-81
2022/10/05 12:42:49;;;;;;;14.82;9.93;;;;;;;24.69;50.16;102242.63;4948637;28;20047;-82
2022/10/05 12:45:26;;;;;;;18.80;11.27;;;;;;;24.71;50.27;102245.97;4980805;28;20069;-81